John C Widener — WBB7807 — position and weather

sailwx.info

Track history (hours):
 
Tides and Currents Weather Stations Pressure Air Temp Water Temp Dewpoint Dewpoint Depression Visibility Wind Speed Wind Dir Waves Ship Positions

John C Widener

Owner: State of Maryland, DNR, Annapolis, MD. More information available from US FCC via Universal Licensing System and Coast Guard Vessel Documentation Center.

Last reported at 2018-May-22 16:05 UTC. Time now 2018-May-24 23:36 UTC.
Position N 38°57' W 076°22'.

Length 22 m.

Type: Other ship. MMSI: 338154549.

Date/timePositionNaut miles runAvg speedWind from/ knotsBaromVisibWave heightAir tempDewpointWater temp
2018-May-22 16:05N 38°57' W 076°22'1 9.8
2018-May-22 16:00N 38°57' W 076°23'4 7.7
2018-May-22 15:30N 38°54' W 076°25'5 9.5
2018-May-22 15:00N 38°49' W 076°28'0 0.4
2018-May-22 14:13N 38°49' W 076°28'1 4.0
2018-May-22 13:52N 38°50' W 076°28'1 3.3
2018-May-22 13:26N 38°52' W 076°28'1 1.8
2018-May-22 13:00N 38°51' W 076°29'2 3.9
2018-May-22 12:27N 38°53' W 076°27'5 9.8
2018-May-22 11:57N 38°57' W 076°22'  
2018-May-15 15:04N 38°57' W 076°22'1 9.0
2018-May-15 14:59N 38°56' W 076°23'4 9.0
2018-May-15 14:30N 38°53' W 076°27'3 6.0
2018-May-15 14:00N 38°52' W 076°30'1 1.0
2018-May-15 13:26N 38°52' W 076°31'1 2.6
2018-May-15 13:00N 38°52' W 076°29'2 3.2
2018-May-15 12:30N 38°53' W 076°27'  
Track history (hours):
 
Tides and Currents Weather Stations Pressure Air Temp Water Temp Dewpoint Dewpoint Depression Visibility Wind Speed Wind Dir Waves Ship Positions

John C Widener

Owner: State of Maryland, DNR, Annapolis, MD. More information available from US FCC via Universal Licensing System and Coast Guard Vessel Documentation Center.

Last reported at 2018-May-22 16:05 UTC. Time now 2018-May-24 23:36 UTC.
Position N 38°57' W 076°22'.

Length 22 m.

Type: Other ship. MMSI: 338154549.

Date/timePositionNaut miles runAvg speedWind from/ knotsBaromVisibWave heightAir tempDewpointWater temp
2018-May-22 16:05N 38°57' W 076°22'1 9.8
2018-May-22 16:00N 38°57' W 076°23'4 7.7
2018-May-22 15:30N 38°54' W 076°25'5 9.5
2018-May-22 15:00N 38°49' W 076°28'0 0.4
2018-May-22 14:13N 38°49' W 076°28'1 4.0
2018-May-22 13:52N 38°50' W 076°28'1 3.3
2018-May-22 13:26N 38°52' W 076°28'1 1.8
2018-May-22 13:00N 38°51' W 076°29'2 3.9
2018-May-22 12:27N 38°53' W 076°27'5 9.8
2018-May-22 11:57N 38°57' W 076°22'  
2018-May-15 15:04N 38°57' W 076°22'1 9.0
2018-May-15 14:59N 38°56' W 076°23'4 9.0
2018-May-15 14:30N 38°53' W 076°27'3 6.0
2018-May-15 14:00N 38°52' W 076°30'1 1.0
2018-May-15 13:26N 38°52' W 076°31'1 2.6
2018-May-15 13:00N 38°52' W 076°29'2 3.2
2018-May-15 12:30N 38°53' W 076°27'  

Dump ship's entire track history